Time;durP1;ratioP1;P1;durP2;ratioP2;P2;SDS_P1;SDS_P2;PMS_P1;PMS_P2;Temp;Humidity;BMP_temperature;BMP_pressure;BME280_temperature;BME280_humidity;BME280_pressure;Samples;Min_cycle;Max_cycle;Signal;HPM_P1;HPM_P2
2023/10/14 00:01:14;;;;;;;;;;;;;;;21.63;39.65;101287.83;102817;1290;61348;-83
2023/10/14 00:03:43;;;;;;;;;;;;;;;21.64;39.59;101280.64;103231;1288;61388;-82
2023/10/14 00:06:12;;;;;;;;;;;;;;;21.63;39.54;101277.27;103164;1292;72956;-82
2023/10/14 00:08:57;;;;;;;;;;;;;;;21.63;39.67;101272.60;103218;1293;74456;-82
2023/10/14 00:11:50;;;;;;;;;;;;;;;21.63;39.60;101276.35;103170;1293;61345;-82
2023/10/14 00:14:16;;;;;;;;;;;;;;;21.63;39.74;101274.56;103156;1293;61502;-82
2023/10/14 00:16:48;;;;;;;;;;;;;;;21.63;39.68;101265.64;103172;1288;61485;-82
2023/10/14 00:19:14;;;;;;;;;;;;;;;21.63;39.75;101263.48;103074;1287;75384;-83
2023/10/14 00:21:42;;;;;;;;;;;;;;;21.63;39.67;101261.16;103145;1294;61432;-82
2023/10/14 00:24:08;;;;;;;;;;;;;;;21.63;39.60;101260.28;103104;1288;62555;-82
2023/10/14 00:27:04;;;;;;;;;;;;;;;21.63;39.63;101257.75;103106;1288;61411;-83
2023/10/14 00:29:29;;;;;;;;;;;;;;;21.63;39.69;101256.50;102564;1299;73319;-81
2023/10/14 00:31:55;;;;;;;;;;;;;;;21.63;39.60;101253.29;102569;1294;62319;-84
2023/10/14 00:34:25;;;;;;;;;;;;;;;21.63;39.51;101251.29;102299;1300;61588;-83
2023/10/14 00:36:53;;;;;;;;;;;;;;;21.63;39.61;101254.52;102595;1294;73429;-83
2023/10/14 00:39:24;;;;;;;;;;;;;;;21.63;39.50;101256.51;102525;1296;74188;-81
2023/10/14 00:41:50;;;;;;;;;;;;;;;21.63;39.62;101254.35;102472;1299;61541;-80
2023/10/14 00:44:16;;;;;;;;;;;;;;;21.63;39.53;101252.21;102404;1294;61952;-81
2023/10/14 00:46:51;;;;;;;;;;;;;;;21.63;39.59;101249.71;102472;1299;61594;-82
2023/10/14 00:49:34;;;;;;;;;;;;;;;21.63;39.52;101249.36;102340;1299;75193;-82
2023/10/14 00:52:10;;;;;;;;;;;;;;;21.62;39.64;101244.91;102688;1299;61900;-81
2023/10/14 00:54:53;;;;;;;;;;;;;;;21.62;39.61;101244.21;102456;1294;62122;-82
2023/10/14 00:57:21;;;;;;;;;;;;;;;21.63;39.64;101241.84;102465;1297;72662;-82
2023/10/14 00:59:50;;;;;;;;;;;;;;;21.63;39.65;101243.09;102620;1294;74871;-82
2023/10/14 01:02:32;;;;;;;;;;;;;;;21.62;39.61;101238.82;102636;1294;62486;-83
2023/10/14 01:05:07;;;;;;;;;;;;;;;21.62;39.63;101241.33;102606;1295;61720;-82
2023/10/14 01:07:32;;;;;;;;;;;;;;;21.62;39.59;101239.19;102909;1292;73335;-82
2023/10/14 01:10:00;;;;;;;;;;;;;;;21.62;39.66;101234.33;103169;1292;61403;-81
2023/10/14 01:12:43;;;;;;;;;;;;;;;21.62;39.61;101238.64;103067;1290;62141;-82
2023/10/14 01:15:19;;;;;;;;;;;;;;;21.62;39.57;101239.36;103085;1293;61384;-82
2023/10/14 01:17:45;;;;;;;;;;;;;;;21.63;39.56;101235.21;103117;1292;73448;-83
2023/10/14 01:23:07;;;;;;;;;;;;;;;21.62;39.68;101232.58;102476;1298;61327;-83
2023/10/14 01:25:33;;;;;;;;;;;;;;;21.62;39.59;101229.16;102483;1299;61748;-82
2023/10/14 01:27:59;;;;;;;;;;;;;;;21.62;39.61;101222.90;102452;1294;61508;-81
2023/10/14 01:30:26;;;;;;;;;;;;;;;21.62;39.64;101222.90;102621;1299;61789;-81
2023/10/14 01:33:24;;;;;;;;;;;;;;;21.62;39.64;101221.29;102645;1298;61952;-81
2023/10/14 01:35:51;;;;;;;;;;;;;;;21.62;39.56;101219.50;102156;1305;61673;-81
2023/10/14 01:38:17;;;;;;;;;;;;;;;21.62;39.61;101221.48;102094;1299;72536;-83
2023/10/14 01:40:55;;;;;;;;;;;;;;;21.62;39.58;101221.64;102098;1300;62302;-83
2023/10/14 01:43:30;;;;;;;;;;;;;;;21.62;39.64;101216.63;102122;1299;61421;-81
2023/10/14 01:48:21;;;;;;;;;;;;;;;21.62;39.52;101212.17;102098;1303;61578;-81
2023/10/14 01:50:50;;;;;;;;;;;;;;;21.61;39.67;101210.04;102139;1305;61513;-81
2023/10/14 01:53:21;;;;;;;;;;;;;;;21.61;39.60;101210.77;102184;1306;61425;-82
2023/10/14 01:55:47;;;;;;;;;;;;;;;21.60;39.67;101208.63;102128;1304;62297;-85
2023/10/14 01:58:21;;;;;;;;;;;;;;;21.61;39.51;101206.13;102120;1300;72301;-83
2023/10/14 02:00:52;;;;;;;;;;;;;;;21.61;39.57;101205.56;102381;1299;74504;-82
2023/10/14 02:03:19;;;;;;;;;;;;;;;21.60;39.64;101201.13;102621;1293;61594;-82
2023/10/14 02:05:45;;;;;;;;;;;;;;;21.60;39.65;101201.13;102629;1300;61745;-85
2023/10/14 02:08:15;;;;;;;;;;;;;;;21.60;39.60;101203.27;102552;1298;61498;-83
2023/10/14 02:10:53;;;;;;;;;;;;;;;21.60;39.61;101202.20;102636;1299;73411;-82
2023/10/14 02:13:28;;;;;;;;;;;;;;;21.60;39.66;101203.81;102484;1289;61462;-82
2023/10/14 02:15:59;;;;;;;;;;;;;;;21.60;39.67;101202.21;103216;1292;61554;-83
2023/10/14 02:18:24;;;;;;;;;;;;;;;21.60;39.70;101200.40;103195;1292;73446;-83
2023/10/14 02:20:56;;;;;;;;;;;;;;;21.60;39.56;101198.81;103004;1289;266881;-82
2023/10/14 02:23:26;;;;;;;;;;;;;;;21.60;39.61;101197.52;103081;1293;62312;-83
2023/10/14 02:25:56;;;;;;;;;;;;;;;21.60;39.58;101194.86;103256;1288;61617;-81
2023/10/14 02:28:29;;;;;;;;;;;;;;;21.60;39.68;101195.79;103124;1294;72719;-82
2023/10/14 02:30:59;;;;;;;;;;;;;;;21.60;39.56;101193.78;103120;1294;74539;-82
2023/10/14 02:33:25;;;;;;;;;;;;;;;21.60;39.55;101191.48;103099;1294;62445;-83
2023/10/14 02:35:55;;;;;;;;;;;;;;;21.60;39.47;101192.71;103110;1296;61335;-82
2023/10/14 02:38:24;;;;;;;;;;;;;;;21.59;39.56;101188.46;103099;1293;72525;-81
2023/10/14 02:40:49;;;;;;;;;;;;;;;21.59;39.47;101189.00;103198;1290;74488;-81
2023/10/14 02:43:38;;;;;;;;;;;;;;;21.59;39.61;101188.29;103232;1288;61397;-83
2023/10/14 02:46:04;;;;;;;;;;;;;;;21.59;39.69;101184.16;102597;1300;61408;-82
2023/10/14 02:48:52;;;;;;;;;;;;;;;21.59;39.63;101181.30;102444;1304;62218;-80
2023/10/14 02:51:16;;;;;;;;;;;;;;;21.60;39.61;101175.38;102393;1295;75425;-83
2023/10/14 02:53:43;;;;;;;;;;;;;;;21.60;39.68;101173.55;102598;1300;61365;-82
2023/10/14 02:56:58;;;;;;;;;;;;;;;21.59;39.60;101175.56;102580;1299;61361;-82
2023/10/14 02:59:46;;;;;;;;;;;;;;;21.60;39.55;101172.14;102134;1310;72399;-81
2023/10/14 03:02:25;;;;;;;;;;;;;;;21.59;39.55;101167.34;102170;1301;74279;-81
2023/10/14 03:04:55;;;;;;;;;;;;;;;21.60;39.61;101165.70;102202;1301;61408;-82
2023/10/14 03:07:33;;;;;;;;;;;;;;;21.60;39.60;101168.02;102145;1307;61410;-82
2023/10/14 03:12:40;;;;;;;;;;;;;;;21.60;39.51;101165.50;102088;1305;75527;-81
2023/10/14 03:15:18;;;;;;;;;;;;;;;21.60;39.62;101166.23;101877;1303;61543;-81
2023/10/14 03:17:56;;;;;;;;;;;;;;;21.59;39.58;101167.52;102159;1307;61328;-81
2023/10/14 03:20:58;;;;;;;;;;;;;;;21.60;39.58;101169.83;102058;1302;73617;-82
2023/10/14 03:25:37;;;;;;;;;;;;;;;21.59;39.60;101164.13;102678;1297;61390;-82
2023/10/14 03:28:13;;;;;;;;;;;;;;;21.60;39.66;101164.09;102547;1298;62183;-81
2023/10/14 03:30:45;;;;;;;;;;;;;;;21.60;39.62;101163.73;102607;1297;73570;-81
2023/10/14 03:33:11;;;;;;;;;;;;;;;21.59;39.50;101162.69;102696;1297;74538;-81
2023/10/14 03:35:38;;;;;;;;;;;;;;;21.59;39.55;101160.38;102713;1297;62463;-82
2023/10/14 03:38:25;;;;;;;;;;;;;;;21.59;39.64;101160.55;103182;1288;61411;-84
2023/10/14 03:41:03;;;;;;;;;;;;;;;21.59;39.68;101156.81;103102;1294;72645;-82
2023/10/14 03:43:43;;;;;;;;;;;;;;;21.59;39.53;101157.16;103281;1287;74451;-82
2023/10/14 03:46:14;;;;;;;;;;;;;;;21.59;39.64;101158.04;103216;1287;61488;-81
2023/10/14 03:48:47;;;;;;;;;;;;;;;21.59;39.53;101157.34;103085;1292;61411;-82
2023/10/14 03:51:25;;;;;;;;;;;;;;;21.59;39.61;101155.92;103181;1290;73340;-81
2023/10/14 03:53:52;;;;;;;;;;;;;;;21.58;39.53;101155.39;103089;1294;74448;-82
2023/10/14 03:56:27;;;;;;;;;;;;;;;21.59;39.57;101152.34;103075;1293;61355;-83
2023/10/14 03:58:57;;;;;;;;;;;;;;;21.58;39.56;101153.44;103142;1288;62008;-83
2023/10/14 04:01:43;;;;;;;;;;;;;;;21.58;39.66;101153.61;102823;1288;71610;-83
2023/10/14 04:04:18;;;;;;;;;;;;;;;21.58;39.54;101148.80;103195;1292;74534;-82
2023/10/14 04:07:13;;;;;;;;;;;;;;;21.58;39.51;101143.82;103051;1289;61414;-83
2023/10/14 04:09:56;;;;;;;;;;;;;;;21.58;39.64;101144.53;103140;1288;61375;-82
2023/10/14 04:12:37;;;;;;;;;;;;;;;21.58;39.56;101142.55;103052;1287;71501;-84
2023/10/14 04:15:31;;;;;;;;;;;;;;;21.58;39.49;101143.09;103206;1289;74580;-82
2023/10/14 04:17:55;;;;;;;;;;;;;;;21.58;39.54;101144.00;103135;1288;61320;-83
2023/10/14 04:20:22;;;;;;;;;;;;;;;21.58;39.47;101140.59;103079;1287;62643;-82
2023/10/14 04:22:51;;;;;;;;;;;;;;;21.58;39.57;101141.31;103208;1293;72307;-82
2023/10/14 04:25:21;;;;;;;;;;;;;;;21.58;39.57;101146.34;103026;1288;74359;-84
2023/10/14 04:30:25;;;;;;;;;;;;;;;21.58;39.59;101144.36;103171;1293;61340;-83
2023/10/14 04:35:23;;;;;;;;;;;;;;;21.57;39.64;101146.55;103060;1293;74501;-81
2023/10/14 04:37:51;;;;;;;;;;;;;;;21.57;39.55;101148.87;103223;1293;61369;-81
2023/10/14 04:40:35;;;;;;;;;;;;;;;21.58;39.57;101154.58;103050;1288;62454;-83
2023/10/14 04:43:12;;;;;;;;;;;;;;;21.57;39.56;101153.89;103276;1288;71558;-81
2023/10/14 04:46:11;;;;;;;;;;;;;;;21.57;39.46;101158.71;103193;1292;74506;-82
2023/10/14 04:48:39;;;;;;;;;;;;;;;21.57;39.52;101154.23;103293;1289;61394;-81
2023/10/14 04:51:15;;;;;;;;;;;;;;;21.57;39.60;101154.42;103236;1288;62380;-83
2023/10/14 04:53:53;;;;;;;;;;;;;;;21.58;39.51;101157.42;103053;1288;73447;-82
2023/10/14 04:56:21;;;;;;;;;;;;;;;21.58;39.53;101156.69;103199;1294;61398;-81
2023/10/14 04:58:47;;;;;;;;;;;;;;;21.58;39.51;101157.95;103147;1288;61760;-84
2023/10/14 05:01:19;;;;;;;;;;;;;;;21.58;39.64;101159.95;103078;1289;61445;-81
2023/10/14 05:03:47;;;;;;;;;;;;;;;21.58;39.62;101162.44;102733;1288;72491;-83
2023/10/14 05:08:47;;;;;;;;;;;;;;;21.58;39.49;101163.69;103224;1288;61468;-81
2023/10/14 05:11:18;;;;;;;;;;;;;;;21.58;39.52;101165.12;103006;1293;61360;-82
2023/10/14 05:13:53;;;;;;;;;;;;;;;21.58;39.46;101169.94;103035;1292;72470;-84
2023/10/14 05:16:22;;;;;;;;;;;;;;;21.58;39.58;101166.88;103045;1292;73513;-82
2023/10/14 05:19:00;;;;;;;;;;;;;;;21.58;39.56;101162.44;102830;1293;61322;-81
2023/10/14 05:21:36;;;;;;;;;;;;;;;21.58;39.55;101160.23;103178;1288;62584;-84
2023/10/14 05:24:04;;;;;;;;;;;;;;;21.59;39.43;101161.12;103195;1288;73530;-83
2023/10/14 05:26:35;;;;;;;;;;;;;;;21.59;39.51;101161.63;103249;1289;75464;-81
2023/10/14 05:29:16;;;;;;;;;;;;;;;21.59;39.49;101165.07;103089;1288;61303;-81
2023/10/14 05:31:46;;;;;;;;;;;;;;;21.59;39.45;101168.64;103070;1288;61991;-82
2023/10/14 05:34:11;;;;;;;;;;;;;;;21.59;39.53;101174.88;103060;1289;72594;-82
2023/10/14 05:36:37;;;;;;;;;;;;;;;21.59;39.46;101177.78;103051;1293;62239;-82
2023/10/14 05:39:03;;;;;;;;;;;;;;;21.60;39.57;101179.67;103252;1288;61801;-81
2023/10/14 05:41:29;;;;;;;;;;;;;;;21.59;39.51;101182.59;103199;1292;61386;-85
2023/10/14 05:43:54;;;;;;;;;;;;;;;21.60;39.52;101185.77;103173;1288;61539;-82
2023/10/14 05:46:20;;;;;;;;;;;;;;;21.60;39.45;101191.31;103211;1289;61313;-83
2023/10/14 05:48:53;;;;;;;;;;;;;;;21.59;39.50;101189.55;103221;1288;74385;-82
2023/10/14 05:51:19;;;;;;;;;;;;;;;21.60;39.51;101193.83;103138;1292;61270;-83
2023/10/14 05:53:46;;;;;;;;;;;;;;;21.60;39.56;101192.02;103105;1290;62456;-83
2023/10/14 05:56:14;;;;;;;;;;;;;;;21.60;39.40;101190.21;103208;1292;72852;-83
2023/10/14 05:58:45;;;;;;;;;;;;;;;21.60;39.57;101189.14;103206;1287;75227;-82
2023/10/14 06:01:11;;;;;;;;;;;;;;;21.60;39.35;101191.46;103236;1294;61404;-82
2023/10/14 06:03:37;;;;;;;;;;;;;;;21.60;39.53;101188.80;103070;1288;61408;-82
2023/10/14 06:06:14;;;;;;;;;;;;;;;21.60;39.47;101189.48;103067;1293;61474;-82
2023/10/14 06:08:40;;;;;;;;;;;;;;;21.60;39.49;101186.29;103039;1288;75415;-81
2023/10/14 06:11:06;;;;;;;;;;;;;;;21.60;39.43;101185.02;103068;1289;62113;-82
2023/10/14 06:13:32;;;;;;;;;;;;;;;21.60;39.53;101188.42;103092;1293;61450;-81
2023/10/14 06:16:00;;;;;;;;;;;;;;;21.60;39.40;101186.77;102791;1294;61426;-82
2023/10/14 06:18:26;;;;;;;;;;;;;;;21.60;39.49;101186.65;103225;1292;61319;-82
2023/10/14 06:20:53;;;;;;;;;;;;;;;21.61;39.40;101186.07;103198;1287;61410;-83
2023/10/14 06:23:18;;;;;;;;;;;;;;;21.60;39.47;101184.11;103077;1292;61349;-82
2023/10/14 06:25:45;;;;;;;;;;;;;;;21.60;39.49;101183.05;103122;1288;61541;-84
2023/10/14 06:28:12;;;;;;;;;;;;;;;21.60;39.42;101182.31;103082;1290;75517;-82
2023/10/14 06:30:37;;;;;;;;;;;;;;;21.60;39.37;101182.50;103040;1289;61493;-84
2023/10/14 06:33:05;;;;;;;;;;;;;;;21.61;39.42;101184.25;103219;1288;61913;-82
2023/10/14 06:35:32;;;;;;;;;;;;;;;21.61;39.40;101180.52;103152;1288;72515;-81
2023/10/14 06:37:58;;;;;;;;;;;;;;;21.61;39.39;101179.95;103099;1293;61413;-82
2023/10/14 06:40:24;;;;;;;;;;;;;;;21.61;39.42;101179.80;103047;1288;62052;-83
2023/10/14 06:42:50;;;;;;;;;;;;;;;21.61;39.43;101177.81;103068;1293;61411;-82
2023/10/14 06:45:21;;;;;;;;;;;;;;;21.60;39.36;101175.86;103191;1288;62625;-83
2023/10/14 06:47:50;;;;;;;;;;;;;;;21.61;39.33;101173.50;103047;1288;74246;-83
2023/10/14 06:50:20;;;;;;;;;;;;;;;21.60;39.42;101170.31;103074;1292;61286;-83
2023/10/14 06:52:58;;;;;;;;;;;;;;;21.61;39.46;101168.84;103249;1292;61313;-81
2023/10/14 06:55:27;;;;;;;;;;;;;;;21.62;39.37;101170.63;103092;1293;72507;-81
2023/10/14 06:57:55;;;;;;;;;;;;;;;21.61;39.45;101172.07;103007;1287;74596;-81
2023/10/14 07:00:29;;;;;;;;;;;;;;;21.62;39.53;101174.91;103117;1289;61369;-81
2023/10/14 07:02:57;;;;;;;;;;;;;;;21.62;39.30;101170.58;103059;1288;62658;-81
2023/10/14 07:05:23;;;;;;;;;;;;;;;21.62;39.38;101168.23;103407;1288;72250;-81
2023/10/14 07:07:49;;;;;;;;;;;;;;;21.62;39.36;101167.70;103038;1288;61989;-81
2023/10/14 07:10:15;;;;;;;;;;;;;;;21.63;39.39;101170.20;103032;1288;61336;-84
2023/10/14 07:12:41;;;;;;;;;;;;;;;21.62;39.29;101166.10;103221;1288;62454;-81
2023/10/14 07:15:12;;;;;;;;;;;;;;;21.63;39.32;101164.64;103352;1293;61414;-81
2023/10/14 07:17:39;;;;;;;;;;;;;;;21.63;39.40;101163.68;103133;1288;74457;-83
2023/10/14 07:20:07;;;;;;;;;;;;;;;21.63;39.41;101165.12;103232;1288;61675;-83
2023/10/14 07:22:32;;;;;;;;;;;;;;;21.64;39.34;101162.23;103094;1290;61247;-83
2023/10/14 07:24:58;;;;;;;;;;;;;;;21.65;39.30;101159.88;103030;1293;61389;-82
2023/10/14 07:27:24;;;;;;;;;;;;;;;21.64;39.41;101160.77;103147;1288;61433;-83
2023/10/14 07:29:49;;;;;;;;;;;;;;;21.64;39.24;101161.65;103197;1288;61380;-81
2023/10/14 07:32:15;;;;;;;;;;;;;;;21.65;39.37;101160.71;103207;1294;61473;-83
2023/10/14 07:34:41;;;;;;;;;;;;;;;21.65;39.23;101159.96;103201;1288;61366;-81
2023/10/14 07:37:09;;;;;;;;;;;;;;;21.66;39.42;101160.48;103020;1288;72276;-82
2023/10/14 07:39:35;;;;;;;;;;;;;;;21.66;39.28;101160.83;103029;1287;75345;-81
2023/10/14 07:42:09;;;;;;;;;;;;;;;21.66;39.26;101159.23;103011;1292;61394;-82
2023/10/14 07:44:35;;;;;;;;;;;;;;;21.66;39.35;101155.08;103295;1287;61796;-83
2023/10/14 07:47:05;;;;;;;;;;;;;;;21.67;39.27;101156.64;103166;1287;61746;-82
2023/10/14 07:49:35;;;;;;;;;;;;;;;21.67;39.22;101153.93;103029;1288;75311;-82
2023/10/14 07:52:00;;;;;;;;;;;;;;;21.67;39.42;101153.39;103195;1288;61316;-82
2023/10/14 07:54:36;;;;;;;;;;;;;;;21.68;39.38;101151.38;103166;1288;61379;-84
2023/10/14 07:57:02;;;;;;;;;;;;;;;21.68;39.34;101153.50;103129;1293;72538;-83
2023/10/14 07:59:34;;;;;;;;;;;;;;;21.69;39.34;101148.98;102987;1288;74282;-82
2023/10/14 08:02:07;;;;;;;;;;;;;;;21.69;39.31;101145.95;103165;1288;61414;-82
2023/10/14 08:04:33;;;;;;;;;;;;;;;21.70;39.28;101143.52;103073;1291;61390;-82
2023/10/14 08:07:00;;;;;;;;;;;;;;;21.71;39.36;101142.73;103209;1293;61401;-82
2023/10/14 08:09:28;;;;;;;;;;;;;;;21.71;39.36;101137.90;103166;1288;61492;-83
2023/10/14 08:11:54;;;;;;;;;;;;;;;21.71;39.36;101138.06;103066;1288;61438;-82
2023/10/14 08:14:20;;;;;;;;;;;;;;;21.72;39.34;101135.88;103067;1288;61452;-81
2023/10/14 08:16:48;;;;;;;;;;;;;;;21.72;39.39;101132.95;103055;1288;61411;-82
2023/10/14 08:19:14;;;;;;;;;;;;;;;21.72;39.32;101129.56;103196;1288;75644;-84
2023/10/14 08:21:39;;;;;;;;;;;;;;;21.73;39.31;101127.94;103092;1288;61415;-82
2023/10/14 08:24:05;;;;;;;;;;;;;;;21.73;39.35;101128.42;103225;1288;61405;-81
2023/10/14 08:26:34;;;;;;;;;;;;;;;21.74;39.30;101126.23;103013;1288;61379;-81
2023/10/14 08:29:00;;;;;;;;;;;;;;;21.74;39.29;101124.98;102982;1292;61468;-82
2023/10/14 08:31:26;;;;;;;;;;;;;;;21.75;39.29;101121.34;103036;1288;61498;-83
2023/10/14 08:33:51;;;;;;;;;;;;;;;21.75;39.39;101118.80;102995;1290;61390;-81
2023/10/14 08:36:17;;;;;;;;;;;;;;;21.76;39.42;101116.08;103051;1288;61473;-82
2023/10/14 08:38:44;;;;;;;;;;;;;;;21.77;39.40;101118.52;102995;1288;61391;-81
2023/10/14 08:41:14;;;;;;;;;;;;;;;21.78;39.35;101113.98;103047;1292;61360;-82
2023/10/14 08:43:39;;;;;;;;;;;;;;;21.78;39.40;101111.65;103103;1288;61325;-83
2023/10/14 08:46:08;;;;;;;;;;;;;;;21.79;39.28;101105.67;103043;1292;61408;-82
2023/10/14 08:48:37;;;;;;;;;;;;;;;21.80;39.44;101107.21;103191;1288;74657;-83
2023/10/14 08:51:02;;;;;;;;;;;;;;;21.80;39.36;101098.57;103196;1288;61406;-82
2023/10/14 08:53:30;;;;;;;;;;;;;;;21.81;39.44;101096.91;103241;1288;62017;-82
2023/10/14 08:55:57;;;;;;;;;;;;;;;21.82;39.43;101091.84;103205;1288;71596;-83
2023/10/14 08:58:23;;;;;;;;;;;;;;;21.83;39.30;101089.44;103271;1288;74309;-84
2023/10/14 09:00:50;;;;;;;;;;;;;;;21.84;39.35;101084.02;103158;1288;61302;-81
2023/10/14 09:03:17;;;;;;;;;;;;;;;21.84;39.43;101081.48;102985;1288;61399;-82
2023/10/14 09:05:45;;;;;;;;;;;;;;;21.86;39.28;101079.06;103201;1288;61381;-81
2023/10/14 09:08:12;;;;;;;;;;;;;;;21.86;39.33;101074.89;103240;1289;75436;-82
2023/10/14 09:10:37;;;;;;;;;;;;;;;21.87;39.28;101078.03;103116;1292;61371;-81
2023/10/14 09:13:04;;;;;;;;;;;;;;;21.88;39.30;101072.98;103028;1288;61408;-81
2023/10/14 09:15:31;;;;;;;;;;;;;;;21.89;39.33;101074.88;103033;1288;62296;-82
2023/10/14 09:17:57;;;;;;;;;;;;;;;21.89;39.36;101071.05;103021;1292;61390;-81
2023/10/14 09:20:35;;;;;;;;;;;;;;;21.90;39.32;101066.91;103101;1288;61411;-82
2023/10/14 09:23:15;;;;;;;;;;;;;;;21.90;39.31;101062.21;103230;1288;61309;-81
2023/10/14 09:25:41;;;;;;;;;;;;;;;21.91;39.26;101060.71;103276;1288;73451;-82
2023/10/14 09:28:07;;;;;;;;;;;;;;;21.92;39.26;101051.30;102995;1288;74167;-82
2023/10/14 09:30:35;;;;;;;;;;;;;;;21.93;39.20;101049.14;103202;1287;61401;-81
2023/10/14 09:33:02;;;;;;;;;;;;;;;21.93;39.27;101045.15;103083;1288;62385;-81
2023/10/14 09:35:30;;;;;;;;;;;;;;;21.94;39.24;101041.52;103362;1287;72325;-81
2023/10/14 09:37:56;;;;;;;;;;;;;;;21.95;39.33;101034.33;103440;1287;74410;-81
2023/10/14 09:40:22;;;;;;;;;;;;;;;21.95;39.25;101031.41;103171;1288;61355;-82
2023/10/14 09:42:48;;;;;;;;;;;;;;;21.96;39.26;101024.02;103181;1293;61465;-81
2023/10/14 09:45:16;;;;;;;;;;;;;;;21.97;39.32;101020.74;103143;1287;62389;-81
2023/10/14 09:47:45;;;;;;;;;;;;;;;21.97;39.23;101019.63;103187;1291;62680;-81
2023/10/14 09:50:13;;;;;;;;;;;;;;;21.98;39.31;101014.59;103214;1289;61384;-82
2023/10/14 09:52:42;;;;;;;;;;;;;;;21.98;39.26;101007.73;103041;1293;62568;-84
2023/10/14 09:55:13;;;;;;;;;;;;;;;21.99;39.28;101000.89;103140;1288;72490;-82
2023/10/14 09:57:45;;;;;;;;;;;;;;;21.99;39.20;100995.86;103191;1288;75636;-84
2023/10/14 10:00:11;;;;;;;;;;;;;;;21.99;39.20;100989.58;103036;1289;61430;-82
2023/10/14 10:02:43;;;;;;;;;;;;;;;21.99;39.34;100986.16;103037;1287;61268;-82
2023/10/14 10:05:12;;;;;;;;;;;;;;;21.99;39.15;100978.08;103173;1288;72506;-81
2023/10/14 10:07:41;;;;;;;;;;;;;;;22.00;39.21;100975.54;103138;1288;74476;-83
2023/10/14 10:10:13;;;;;;;;;;;;;;;22.00;39.14;100975.93;103217;1288;61869;-83
2023/10/14 10:12:41;;;;;;;;;;;;;;;22.00;39.22;100969.43;103053;1288;61412;-83
2023/10/14 10:15:08;;;;;;;;;;;;;;;22.00;39.20;100967.28;102989;1293;72503;-83
2023/10/14 10:17:34;;;;;;;;;;;;;;;21.99;39.17;100963.36;103045;1288;62566;-83
2023/10/14 10:20:09;;;;;;;;;;;;;;;22.00;39.20;100960.48;103051;1288;61332;-81
2023/10/14 10:22:39;;;;;;;;;;;;;;;22.00;39.15;100954.92;103264;1287;61279;-82
2023/10/14 10:25:09;;;;;;;;;;;;;;;21.99;39.19;100946.36;103161;1288;72347;-83
2023/10/14 10:27:35;;;;;;;;;;;;;;;21.99;39.18;100947.61;103188;1288;75198;-82
2023/10/14 10:30:04;;;;;;;;;;;;;;;21.99;39.24;100941.16;103044;1290;61871;-82
2023/10/14 10:32:30;;;;;;;;;;;;;;;21.99;39.20;100937.95;103028;1288;61732;-82
2023/10/14 10:35:10;;;;;;;;;;;;;;;21.99;39.20;100933.30;103071;1288;61389;-83
2023/10/14 10:37:54;;;;;;;;;;;;;;;21.99;39.07;100925.46;103320;1288;74285;-81
2023/10/14 10:40:25;;;;;;;;;;;;;;;21.98;39.18;100922.27;103176;1288;61300;-82
2023/10/14 10:42:55;;;;;;;;;;;;;;;21.98;39.16;100916.90;103499;1288;62361;-81
2023/10/14 10:45:22;;;;;;;;;;;;;;;21.97;39.18;100915.52;103664;1290;73589;-82
2023/10/14 10:47:54;;;;;;;;;;;;;;;21.97;39.17;100912.13;103599;1287;61267;-81
2023/10/14 10:50:20;;;;;;;;;;;;;;;21.97;39.10;100907.80;103635;1286;61251;-81
2023/10/14 10:53:05;;;;;;;;;;;;;;;21.97;39.19;100904.95;103660;1286;61443;-81
2023/10/14 10:55:30;;;;;;;;;;;;;;;21.97;39.17;100899.39;103382;1287;72513;-82
2023/10/14 10:58:03;;;;;;;;;;;;;;;21.97;39.15;100894.55;103237;1286;61862;-81
2023/10/14 11:00:32;;;;;;;;;;;;;;;21.96;39.19;100883.85;103223;1288;61315;-81
2023/10/14 11:02:58;;;;;;;;;;;;;;;21.97;39.18;100878.82;103201;1287;61375;-83
2023/10/14 11:05:25;;;;;;;;;;;;;;;21.97;39.09;100877.92;103280;1288;61403;-80
2023/10/14 11:07:52;;;;;;;;;;;;;;;21.96;39.07;100870.61;103292;1286;74230;-82
2023/10/14 11:10:33;;;;;;;;;;;;;;;21.96;39.11;100867.27;103271;1287;61780;-81
2023/10/14 11:12:58;;;;;;;;;;;;;;;21.95;39.20;100861.92;103227;1288;61423;-83
2023/10/14 11:15:25;;;;;;;;;;;;;;;21.95;39.12;100861.94;103156;1286;61417;-82
2023/10/14 11:17:57;;;;;;;;;;;;;;;21.95;39.05;100853.52;103218;1286;61377;-82
2023/10/14 11:20:24;;;;;;;;;;;;;;;21.94;39.08;100846.92;103194;1287;62275;-83
2023/10/14 11:22:49;;;;;;;;;;;;;;;21.93;39.09;100844.79;103255;1288;61379;-81
2023/10/14 11:25:18;;;;;;;;;;;;;;;21.93;39.06;100842.66;103159;1286;72752;-84
2023/10/14 11:27:46;;;;;;;;;;;;;;;21.93;39.12;100843.00;103245;1287;74534;-82
2023/10/14 11:30:12;;;;;;;;;;;;;;;21.95;39.15;100839.04;103281;1286;61324;-82
2023/10/14 11:32:48;;;;;;;;;;;;;;;21.94;39.08;100833.88;103190;1286;61438;-83
2023/10/14 11:35:16;;;;;;;;;;;;;;;21.94;39.06;100830.45;103230;1288;72600;-82
2023/10/14 11:37:43;;;;;;;;;;;;;;;21.94;39.04;100826.52;103261;1288;75399;-82
2023/10/14 11:40:13;;;;;;;;;;;;;;;21.94;39.19;100822.55;103183;1288;61374;-82
2023/10/14 11:42:39;;;;;;;;;;;;;;;21.95;39.11;100821.27;103194;1287;62568;-82
2023/10/14 11:45:06;;;;;;;;;;;;;;;21.95;39.15;100820.56;103216;1286;61416;-81
2023/10/14 11:47:36;;;;;;;;;;;;;;;21.95;39.13;100815.86;103105;1287;74395;-82
2023/10/14 11:50:11;;;;;;;;;;;;;;;21.96;39.04;100810.77;103321;1286;61291;-82
2023/10/14 11:52:39;;;;;;;;;;;;;;;21.97;39.06;100808.59;103195;1288;61412;-83
2023/10/14 11:55:05;;;;;;;;;;;;;;;21.97;39.17;100799.74;103149;1288;72615;-82
2023/10/14 11:57:31;;;;;;;;;;;;;;;21.98;39.13;100802.20;103277;1290;61327;-81
2023/10/14 11:59:58;;;;;;;;;;;;;;;21.99;39.10;100799.42;102957;1286;62027;-83
2023/10/14 12:02:24;;;;;;;;;;;;;;;22.00;38.97;100797.40;103227;1286;61407;-82
2023/10/14 12:04:50;;;;;;;;;;;;;;;22.01;39.04;100797.33;103178;1286;62605;-82
2023/10/14 12:07:16;;;;;;;;;;;;;;;22.02;39.10;100790.80;103346;1287;61496;-82
2023/10/14 12:09:42;;;;;;;;;;;;;;;22.02;38.99;100783.26;103265;1290;61388;-81
2023/10/14 12:12:08;;;;;;;;;;;;;;;22.03;39.16;100778.88;103194;1288;61525;-84
2023/10/14 12:14:34;;;;;;;;;;;;;;;22.04;38.95;100773.99;103217;1292;61437;-84
2023/10/14 12:17:04;;;;;;;;;;;;;;;22.05;39.02;100773.20;103296;1288;61744;-82
2023/10/14 12:19:30;;;;;;;;;;;;;;;22.06;39.03;100770.27;103165;1287;74498;-82
2023/10/14 12:21:56;;;;;;;;;;;;;;;22.06;39.04;100761.43;103212;1288;61418;-81
2023/10/14 12:24:21;;;;;;;;;;;;;;;22.07;39.02;100759.94;103120;1287;62522;-81
2023/10/14 12:26:49;;;;;;;;;;;;;;;22.08;38.98;100761.48;103405;1290;61332;-82
2023/10/14 12:29:20;;;;;;;;;;;;;;;22.09;39.00;100755.84;103214;1288;62587;-83
2023/10/14 12:31:47;;;;;;;;;;;;;;;22.10;39.00;100754.70;103225;1286;61296;-81
2023/10/14 12:34:14;;;;;;;;;;;;;;;22.11;38.93;100753.02;103284;1286;61389;-82
2023/10/14 12:36:44;;;;;;;;;;;;;;;22.11;38.95;100750.33;103136;1293;61322;-84
2023/10/14 12:39:19;;;;;;;;;;;;;;;22.12;38.90;100747.58;103241;1286;74396;-83
2023/10/14 12:41:47;;;;;;;;;;;;;;;22.13;38.91;100747.16;103270;1290;61391;-81
2023/10/14 12:44:13;;;;;;;;;;;;;;;22.13;39.02;100743.02;103163;1292;62376;-82
2023/10/14 12:46:40;;;;;;;;;;;;;;;22.14;38.92;100740.42;103181;1288;61336;-83
2023/10/14 12:49:10;;;;;;;;;;;;;;;22.15;38.97;100734.46;103154;1288;75343;-84
2023/10/14 12:51:42;;;;;;;;;;;;;;;22.15;38.86;100733.35;103219;1290;61315;-82
2023/10/14 12:54:16;;;;;;;;;;;;;;;22.16;38.85;100730.61;103180;1287;61449;-82
2023/10/14 12:56:42;;;;;;;;;;;;;;;22.16;38.97;100724.34;103218;1290;72545;-82
2023/10/14 12:59:12;;;;;;;;;;;;;;;22.16;38.87;100724.85;103224;1288;61437;-83